Old Kilpatrick, United Kingdom
Current Conditions -  °F | °C
As of 1:20 PM on Friday 19 Dec 2014 (Local Time) from EGPF Reporting Station
Scattered Clouds Scattered Clouds  
Wind Chill: 32°   Ceiling: Unl
Heat Index: 41°   Visibility: 6mi
Dew Point: 36°   Wind: 21mph
Humidity: 81%   Direction: 270°W
Pressure: 29.68"   Gusts: NA
Location:  55.92°N, 4.46°W
Report Text: EGPF 191320Z AUTO 27018KT 9999 FEW010/// SCT027/// //////TCU 05/02 Q1005
Loading
Personal Weather Stations






























Interactive Weather Map New forecast layout! Learn more

10-Day Weather Forecast

Advertisements
Track Severe Weather on mobile